sensor_id;sensor_type;location;lat;lon;timestamp;temperature;humidity
70807;DHT22;58882;52.170;5.386;2022-07-11T00:00:12;21.80;56.90
70807;DHT22;58882;52.170;5.386;2022-07-11T00:02:54;21.80;57.10
70807;DHT22;58882;52.170;5.386;2022-07-11T00:05:41;21.80;57.10
70807;DHT22;58882;52.170;5.386;2022-07-11T00:08:21;21.80;57.10
70807;DHT22;58882;52.170;5.386;2022-07-11T00:11:08;21.80;57.00
70807;DHT22;58882;52.170;5.386;2022-07-11T00:13:48;21.90;57.20
70807;DHT22;58882;52.170;5.386;2022-07-11T00:16:42;21.80;57.00
70807;DHT22;58882;52.170;5.386;2022-07-11T00:19:22;21.90;57.10
70807;DHT22;58882;52.170;5.386;2022-07-11T00:22:10;21.80;57.00
70807;DHT22;58882;52.170;5.386;2022-07-11T00:24:43;21.80;57.10
70807;DHT22;58882;52.170;5.386;2022-07-11T00:27:37;21.80;57.00
70807;DHT22;58882;52.170;5.386;2022-07-11T00:30:23;21.80;57.10
70807;DHT22;58882;52.170;5.386;2022-07-11T00:33:10;21.80;57.00
70807;DHT22;58882;52.170;5.386;2022-07-11T00:35:50;21.80;57.20
70807;DHT22;58882;52.170;5.386;2022-07-11T00:38:37;21.80;58.10
70807;DHT22;58882;52.170;5.386;2022-07-11T00:41:17;21.80;57.30
70807;DHT22;58882;52.170;5.386;2022-07-11T00:44:04;21.80;57.20
70807;DHT22;58882;52.170;5.386;2022-07-11T00:46:44;21.80;57.30
70807;DHT22;58882;52.170;5.386;2022-07-11T00:49:31;21.80;57.30
70807;DHT22;58882;52.170;5.386;2022-07-11T00:52:11;21.80;57.40
70807;DHT22;58882;52.170;5.386;2022-07-11T00:54:58;21.80;57.30
70807;DHT22;58882;52.170;5.386;2022-07-11T00:57:39;21.80;57.30
70807;DHT22;58882;52.170;5.386;2022-07-11T01:00:33;21.80;57.20
70807;DHT22;58882;52.170;5.386;2022-07-11T01:03:13;21.80;57.10
70807;DHT22;58882;52.170;5.386;2022-07-11T01:06:00;21.80;57.00
70807;DHT22;58882;52.170;5.386;2022-07-11T01:08:40;21.70;57.10
70807;DHT22;58882;52.170;5.386;2022-07-11T01:11:34;21.80;57.10
70807;DHT22;58882;52.170;5.386;2022-07-11T01:14:14;21.80;57.10
70807;DHT22;58882;52.170;5.386;2022-07-11T01:17:01;21.80;57.00
70807;DHT22;58882;52.170;5.386;2022-07-11T01:19:41;21.70;57.00
70807;DHT22;58882;52.170;5.386;2022-07-11T01:22:28;21.70;56.90
70807;DHT22;58882;52.170;5.386;2022-07-11T01:25:10;21.80;57.00
70807;DHT22;58882;52.170;5.386;2022-07-11T01:28:16;21.80;56.90
70807;DHT22;58882;52.170;5.386;2022-07-11T01:30:56;21.80;56.90
70807;DHT22;58882;52.170;5.386;2022-07-11T01:33:43;21.80;56.90
70807;DHT22;58882;52.170;5.386;2022-07-11T01:36:23;21.80;57.80
70807;DHT22;58882;52.170;5.386;2022-07-11T01:39:17;21.80;56.90
70807;DHT22;58882;52.170;5.386;2022-07-11T01:41:50;21.80;57.00
70807;DHT22;58882;52.170;5.386;2022-07-11T01:44:44;21.70;56.80
70807;DHT22;58882;52.170;5.386;2022-07-11T01:47:24;21.80;57.00
70807;DHT22;58882;52.170;5.386;2022-07-11T01:50:11;21.70;56.90
70807;DHT22;58882;52.170;5.386;2022-07-11T01:52:51;21.80;57.00
70807;DHT22;58882;52.170;5.386;2022-07-11T01:55:38;21.70;56.90
70807;DHT22;58882;52.170;5.386;2022-07-11T01:58:38;21.80;57.10
70807;DHT22;58882;52.170;5.386;2022-07-11T02:01:25;21.80;57.10
70807;DHT22;58882;52.170;5.386;2022-07-11T02:04:06;21.70;57.10
70807;DHT22;58882;52.170;5.386;2022-07-11T02:06:53;21.70;57.10
70807;DHT22;58882;52.170;5.386;2022-07-11T02:09:33;21.70;57.20
70807;DHT22;58882;52.170;5.386;2022-07-11T02:12:20;21.70;57.20
70807;DHT22;58882;52.170;5.386;2022-07-11T02:15:00;21.70;57.20
70807;DHT22;58882;52.170;5.386;2022-07-11T02:17:55;21.70;57.20
70807;DHT22;58882;52.170;5.386;2022-07-11T02:20:28;21.70;57.30
70807;DHT22;58882;52.170;5.386;2022-07-11T02:23:22;21.70;57.30
70807;DHT22;58882;52.170;5.386;2022-07-11T02:26:02;21.70;57.30
70807;DHT22;58882;52.170;5.386;2022-07-11T02:28:49;21.70;57.40
70807;DHT22;58882;52.170;5.386;2022-07-11T02:31:29;21.70;57.50
70807;DHT22;58882;52.170;5.386;2022-07-11T02:34:16;21.70;57.50
70807;DHT22;58882;52.170;5.386;2022-07-11T02:36:56;21.70;57.70
70807;DHT22;58882;52.170;5.386;2022-07-11T02:39:43;21.70;57.60
70807;DHT22;58882;52.170;5.386;2022-07-11T02:42:23;21.70;57.80
70807;DHT22;58882;52.170;5.386;2022-07-11T02:45:10;21.70;57.70
70807;DHT22;58882;52.170;5.386;2022-07-11T02:47:51;21.60;57.80
70807;DHT22;58882;52.170;5.386;2022-07-11T02:50:38;21.60;57.70
70807;DHT22;58882;52.170;5.386;2022-07-11T02:53:18;21.60;57.80
70807;DHT22;58882;52.170;5.386;2022-07-11T02:56:05;21.60;57.80
70807;DHT22;58882;52.170;5.386;2022-07-11T02:58:46;21.60;57.80
70807;DHT22;58882;52.170;5.386;2022-07-11T03:01:40;21.60;57.90
70807;DHT22;58882;52.170;5.386;2022-07-11T03:04:20;21.60;57.90
70807;DHT22;58882;52.170;5.386;2022-07-11T03:07:07;21.60;58.00
70807;DHT22;58882;52.170;5.386;2022-07-11T03:09:47;21.60;58.10
70807;DHT22;58882;52.170;5.386;2022-07-11T03:12:34;21.60;58.10
70807;DHT22;58882;52.170;5.386;2022-07-11T03:15:14;21.60;58.10
70807;DHT22;58882;52.170;5.386;2022-07-11T03:18:01;21.60;58.10
70807;DHT22;58882;52.170;5.386;2022-07-11T03:20:41;21.60;58.10
70807;DHT22;58882;52.170;5.386;2022-07-11T03:23:28;21.50;58.10
70807;DHT22;58882;52.170;5.386;2022-07-11T03:26:08;21.50;58.30
70807;DHT22;58882;52.170;5.386;2022-07-11T03:28:55;21.40;58.40
70807;DHT22;58882;52.170;5.386;2022-07-11T03:31:35;21.40;58.50
70807;DHT22;58882;52.170;5.386;2022-07-11T03:34:29;21.40;58.70
70807;DHT22;58882;52.170;5.386;2022-07-11T03:37:09;21.40;58.80
70807;DHT22;58882;52.170;5.386;2022-07-11T03:39:56;21.40;58.70
70807;DHT22;58882;52.170;5.386;2022-07-11T03:42:37;21.40;58.80
70807;DHT22;58882;52.170;5.386;2022-07-11T03:45:24;21.50;58.70
70807;DHT22;58882;52.170;5.386;2022-07-11T03:48:05;21.50;58.70
70807;DHT22;58882;52.170;5.386;2022-07-11T03:50:52;21.50;58.60
70807;DHT22;58882;52.170;5.386;2022-07-11T03:53:39;21.50;58.70
70807;DHT22;58882;52.170;5.386;2022-07-11T03:56:19;21.50;58.80
70807;DHT22;58882;52.170;5.386;2022-07-11T03:59:09;21.50;58.80
70807;DHT22;58882;52.170;5.386;2022-07-11T04:01:49;21.40;58.80
70807;DHT22;58882;52.170;5.386;2022-07-11T04:04:36;21.40;58.80
70807;DHT22;58882;52.170;5.386;2022-07-11T04:07:16;21.50;58.80
70807;DHT22;58882;52.170;5.386;2022-07-11T04:10:11;21.40;58.70
70807;DHT22;58882;52.170;5.386;2022-07-11T04:12:51;21.40;58.80
70807;DHT22;58882;52.170;5.386;2022-07-11T04:15:38;21.40;58.90
70807;DHT22;58882;52.170;5.386;2022-07-11T04:18:18;21.40;58.80
70807;DHT22;58882;52.170;5.386;2022-07-11T04:21:05;21.40;58.90
70807;DHT22;58882;52.170;5.386;2022-07-11T04:23:41;21.40;59.00
70807;DHT22;58882;52.170;5.386;2022-07-11T04:26:35;21.30;58.90
70807;DHT22;58882;52.170;5.386;2022-07-11T04:29:15;21.30;59.10
70807;DHT22;58882;52.170;5.386;2022-07-11T04:32:02;21.40;59.10
70807;DHT22;58882;52.170;5.386;2022-07-11T04:34:42;21.30;59.00
70807;DHT22;58882;52.170;5.386;2022-07-11T04:37:29;21.30;59.10
70807;DHT22;58882;52.170;5.386;2022-07-11T04:40:10;21.30;59.20
70807;DHT22;58882;52.170;5.386;2022-07-11T04:42:57;21.30;59.30
70807;DHT22;58882;52.170;5.386;2022-07-11T04:45:37;21.30;59.30
70807;DHT22;58882;52.170;5.386;2022-07-11T04:48:24;21.30;59.40
70807;DHT22;58882;52.170;5.386;2022-07-11T04:51:05;21.30;59.40
70807;DHT22;58882;52.170;5.386;2022-07-11T04:53:52;21.40;59.50
70807;DHT22;58882;52.170;5.386;2022-07-11T04:56:32;21.40;59.40
70807;DHT22;58882;52.170;5.386;2022-07-11T04:59:19;21.50;59.40
70807;DHT22;58882;52.170;5.386;2022-07-11T05:01:59;21.50;59.40
70807;DHT22;58882;52.170;5.386;2022-07-11T05:04:46;21.50;59.30
70807;DHT22;58882;52.170;5.386;2022-07-11T05:07:26;21.50;59.40
70807;DHT22;58882;52.170;5.386;2022-07-11T05:10:14;21.50;59.30
70807;DHT22;58882;52.170;5.386;2022-07-11T05:12:54;21.50;59.30
70807;DHT22;58882;52.170;5.386;2022-07-11T05:15:48;21.60;59.20
70807;DHT22;58882;52.170;5.386;2022-07-11T05:18:28;21.60;59.20
70807;DHT22;58882;52.170;5.386;2022-07-11T05:21:15;21.60;59.30
70807;DHT22;58882;52.170;5.386;2022-07-11T05:23:55;21.60;59.10
70807;DHT22;58882;52.170;5.386;2022-07-11T05:26:49;21.60;59.10
70807;DHT22;58882;52.170;5.386;2022-07-11T05:29:22;21.60;59.00
70807;DHT22;58882;52.170;5.386;2022-07-11T05:32:16;21.60;59.00
70807;DHT22;58882;52.170;5.386;2022-07-11T05:34:56;21.70;59.00
70807;DHT22;58882;52.170;5.386;2022-07-11T05:37:45;21.70;60.00
70807;DHT22;58882;52.170;5.386;2022-07-11T05:40:25;21.70;58.90
70807;DHT22;58882;52.170;5.386;2022-07-11T05:43:12;21.80;58.60
70807;DHT22;58882;52.170;5.386;2022-07-11T05:45:52;21.90;58.40
70807;DHT22;58882;52.170;5.386;2022-07-11T05:48:39;21.90;58.20
70807;DHT22;58882;52.170;5.386;2022-07-11T05:51:22;22.00;58.00
70807;DHT22;58882;52.170;5.386;2022-07-11T05:54:09;22.10;57.90
70807;DHT22;58882;52.170;5.386;2022-07-11T05:57:03;22.10;57.60
70807;DHT22;58882;52.170;5.386;2022-07-11T05:59:43;22.20;57.30
70807;DHT22;58882;52.170;5.386;2022-07-11T06:02:41;22.30;57.10
70807;DHT22;58882;52.170;5.386;2022-07-11T06:05:17;22.40;57.00
70807;DHT22;58882;52.170;5.386;2022-07-11T06:08:11;22.40;56.70
70807;DHT22;58882;52.170;5.386;2022-07-11T06:11:23;22.40;56.60
70807;DHT22;58882;52.170;5.386;2022-07-11T06:13:56;22.50;56.40
70807;DHT22;58882;52.170;5.386;2022-07-11T06:16:50;22.40;56.30
70807;DHT22;58882;52.170;5.386;2022-07-11T06:19:30;22.40;56.30
70807;DHT22;58882;52.170;5.386;2022-07-11T06:22:17;22.50;56.30
70807;DHT22;58882;52.170;5.386;2022-07-11T06:24:57;22.50;57.10
70807;DHT22;58882;52.170;5.386;2022-07-11T06:27:44;22.60;56.00
70807;DHT22;58882;52.170;5.386;2022-07-11T06:30:25;22.60;55.80
70807;DHT22;58882;52.170;5.386;2022-07-11T06:33:12;22.70;55.70
70807;DHT22;58882;52.170;5.386;2022-07-11T06:35:52;22.60;55.60
70807;DHT22;58882;52.170;5.386;2022-07-11T06:38:39;22.70;55.60
70807;DHT22;58882;52.170;5.386;2022-07-11T06:41:20;22.70;55.50
70807;DHT22;58882;52.170;5.386;2022-07-11T06:44:07;22.70;55.40
70807;DHT22;58882;52.170;5.386;2022-07-11T06:46:47;22.70;55.40
70807;DHT22;58882;52.170;5.386;2022-07-11T06:49:34;22.70;55.30
70807;DHT22;58882;52.170;5.386;2022-07-11T06:52:14;22.70;55.30
70807;DHT22;58882;52.170;5.386;2022-07-11T06:55:08;22.70;55.10
70807;DHT22;58882;52.170;5.386;2022-07-11T06:57:41;22.80;55.00
70807;DHT22;58882;52.170;5.386;2022-07-11T07:00:56;22.90;54.80
70807;DHT22;58882;52.170;5.386;2022-07-11T07:03:37;23.00;54.40
70807;DHT22;58882;52.170;5.386;2022-07-11T07:06:25;23.20;54.10
70807;DHT22;58882;52.170;5.386;2022-07-11T07:09:05;23.20;53.80
70807;DHT22;58882;52.170;5.386;2022-07-11T07:11:52;23.30;53.50
70807;DHT22;58882;52.170;5.386;2022-07-11T07:14:32;23.40;53.30
70807;DHT22;58882;52.170;5.386;2022-07-11T07:17:19;23.40;53.10
70807;DHT22;58882;52.170;5.386;2022-07-11T07:19:59;23.50;52.90
70807;DHT22;58882;52.170;5.386;2022-07-11T07:22:55;23.50;52.80
70807;DHT22;58882;52.170;5.386;2022-07-11T07:25:35;23.50;52.70
70807;DHT22;58882;52.170;5.386;2022-07-11T07:28:22;23.50;52.70
70807;DHT22;58882;52.170;5.386;2022-07-11T07:30:55;23.60;52.60
70807;DHT22;58882;52.170;5.386;2022-07-11T07:33:55;23.60;52.50
70807;DHT22;58882;52.170;5.386;2022-07-11T07:36:36;23.60;52.30
70807;DHT22;58882;52.170;5.386;2022-07-11T07:39:30;23.60;52.30
70807;DHT22;58882;52.170;5.386;2022-07-11T07:42:10;23.50;52.30
70807;DHT22;58882;52.170;5.386;2022-07-11T07:44:57;23.40;52.30
70807;DHT22;58882;52.170;5.386;2022-07-11T07:47:30;23.40;52.30
70807;DHT22;58882;52.170;5.386;2022-07-11T07:50:24;23.50;52.40
70807;DHT22;58882;52.170;5.386;2022-07-11T07:53:04;24.00;52.10
70807;DHT22;58882;52.170;5.386;2022-07-11T07:55:51;24.60;51.00
70807;DHT22;58882;52.170;5.386;2022-07-11T07:58:31;25.30;49.50
70807;DHT22;58882;52.170;5.386;2022-07-11T08:01:18;25.90;48.20
70807;DHT22;58882;52.170;5.386;2022-07-11T08:04:10;26.20;47.80
70807;DHT22;58882;52.170;5.386;2022-07-11T08:07:04;26.20;47.70
70807;DHT22;58882;52.170;5.386;2022-07-11T08:09:44;25.90;46.90
70807;DHT22;58882;52.170;5.386;2022-07-11T08:12:31;25.60;47.20
70807;DHT22;58882;52.170;5.386;2022-07-11T08:15:05;25.40;47.60
70807;DHT22;58882;52.170;5.386;2022-07-11T08:17:59;25.20;47.80
70807;DHT22;58882;52.170;5.386;2022-07-11T08:20:39;25.00;48.20
70807;DHT22;58882;52.170;5.386;2022-07-11T08:23:26;24.90;48.50
70807;DHT22;58882;52.170;5.386;2022-07-11T08:26:13;24.70;48.70
70807;DHT22;58882;52.170;5.386;2022-07-11T08:28:53;24.60;49.00
70807;DHT22;58882;52.170;5.386;2022-07-11T08:31:40;24.50;49.20
70807;DHT22;58882;52.170;5.386;2022-07-11T08:34:20;24.50;49.60
70807;DHT22;58882;52.170;5.386;2022-07-11T08:37:07;24.40;49.80
70807;DHT22;58882;52.170;5.386;2022-07-11T08:39:47;24.30;49.80
70807;DHT22;58882;52.170;5.386;2022-07-11T08:42:41;24.30;49.90
70807;DHT22;58882;52.170;5.386;2022-07-11T08:45:29;24.30;50.10
70807;DHT22;58882;52.170;5.386;2022-07-11T08:48:24;24.30;50.20
70807;DHT22;58882;52.170;5.386;2022-07-11T08:51:05;24.20;50.20
70807;DHT22;58882;52.170;5.386;2022-07-11T08:53:52;24.20;50.20
70807;DHT22;58882;52.170;5.386;2022-07-11T08:56:47;24.20;50.20
70807;DHT22;58882;52.170;5.386;2022-07-11T08:59:31;24.20;50.10
70807;DHT22;58882;52.170;5.386;2022-07-11T09:02:23;24.20;50.10
70807;DHT22;58882;52.170;5.386;2022-07-11T09:05:05;24.20;50.10
70807;DHT22;58882;52.170;5.386;2022-07-11T09:07:52;24.30;50.00
70807;DHT22;58882;52.170;5.386;2022-07-11T09:10:32;24.30;49.90
70807;DHT22;58882;52.170;5.386;2022-07-11T09:13:20;24.30;49.80
70807;DHT22;58882;52.170;5.386;2022-07-11T09:16:07;24.30;49.80
70807;DHT22;58882;52.170;5.386;2022-07-11T09:18:55;24.30;49.80
70807;DHT22;58882;52.170;5.386;2022-07-11T09:21:35;24.20;49.80
70807;DHT22;58882;52.170;5.386;2022-07-11T09:25:02;24.20;50.00
70807;DHT22;58882;52.170;5.386;2022-07-11T09:28:04;24.20;50.10
70807;DHT22;58882;52.170;5.386;2022-07-11T09:30:51;24.20;50.20
70807;DHT22;58882;52.170;5.386;2022-07-11T09:33:31;24.20;50.30
70807;DHT22;58882;52.170;5.386;2022-07-11T09:36:35;24.10;50.30
70807;DHT22;58882;52.170;5.386;2022-07-11T09:39:19;24.10;50.40
70807;DHT22;58882;52.170;5.386;2022-07-11T09:42:06;24.10;50.30
70807;DHT22;58882;52.170;5.386;2022-07-11T09:44:46;24.10;50.20
70807;DHT22;58882;52.170;5.386;2022-07-11T09:47:51;24.10;50.30
70807;DHT22;58882;52.170;5.386;2022-07-11T09:50:31;24.10;50.30
70807;DHT22;58882;52.170;5.386;2022-07-11T09:53:18;24.10;50.30
70807;DHT22;58882;52.170;5.386;2022-07-11T09:56:06;24.10;50.30
70807;DHT22;58882;52.170;5.386;2022-07-11T09:59:20;24.10;50.30
70807;DHT22;58882;52.170;5.386;2022-07-11T10:02:01;24.20;50.30
70807;DHT22;58882;52.170;5.386;2022-07-11T10:04:50;24.20;50.20
70807;DHT22;58882;52.170;5.386;2022-07-11T10:07:31;24.20;50.10
70807;DHT22;58882;52.170;5.386;2022-07-11T10:10:25;24.20;50.10
70807;DHT22;58882;52.170;5.386;2022-07-11T10:13:12;24.20;50.00
70807;DHT22;58882;52.170;5.386;2022-07-11T10:16:00;24.20;50.00
70807;DHT22;58882;52.170;5.386;2022-07-11T10:21:45;24.30;49.80
70807;DHT22;58882;52.170;5.386;2022-07-11T10:27:42;24.30;49.60
70807;DHT22;58882;52.170;5.386;2022-07-11T10:30:47;24.40;49.70
70807;DHT22;58882;52.170;5.386;2022-07-11T10:33:59;24.30;49.60
70807;DHT22;58882;52.170;5.386;2022-07-11T10:36:40;24.30;49.70
70807;DHT22;58882;52.170;5.386;2022-07-11T10:39:36;24.40;49.80
70807;DHT22;58882;52.170;5.386;2022-07-11T10:42:19;24.30;49.80
70807;DHT22;58882;52.170;5.386;2022-07-11T10:45:13;24.30;49.70
70807;DHT22;58882;52.170;5.386;2022-07-11T10:47:46;24.40;49.70
70807;DHT22;58882;52.170;5.386;2022-07-11T10:50:43;24.40;49.60
70807;DHT22;58882;52.170;5.386;2022-07-11T10:53:23;24.50;49.60
70807;DHT22;58882;52.170;5.386;2022-07-11T10:59:26;24.40;49.50
70807;DHT22;58882;52.170;5.386;2022-07-11T11:02:24;24.50;49.50
70807;DHT22;58882;52.170;5.386;2022-07-11T11:05:05;24.50;50.50
70807;DHT22;58882;52.170;5.386;2022-07-11T11:07:58;24.50;49.50
70807;DHT22;58882;52.170;5.386;2022-07-11T11:10:44;24.50;49.40
70807;DHT22;58882;52.170;5.386;2022-07-11T11:13:33;24.50;49.40
70807;DHT22;58882;52.170;5.386;2022-07-11T11:16:20;24.50;49.40
70807;DHT22;58882;52.170;5.386;2022-07-11T11:19:49;24.50;49.40
70807;DHT22;58882;52.170;5.386;2022-07-11T11:22:23;24.50;49.50
70807;DHT22;58882;52.170;5.386;2022-07-11T11:25:17;24.50;49.40
70807;DHT22;58882;52.170;5.386;2022-07-11T11:28:02;24.60;49.40
70807;DHT22;58882;52.170;5.386;2022-07-11T11:30:54;24.60;49.30
70807;DHT22;58882;52.170;5.386;2022-07-11T11:33:37;24.60;49.20
70807;DHT22;58882;52.170;5.386;2022-07-11T11:36:24;24.60;49.30
70807;DHT22;58882;52.170;5.386;2022-07-11T11:39:05;24.60;49.20
70807;DHT22;58882;52.170;5.386;2022-07-11T11:41:52;24.60;49.20
70807;DHT22;58882;52.170;5.386;2022-07-11T11:44:33;24.60;49.10
70807;DHT22;58882;52.170;5.386;2022-07-11T11:47:22;24.60;49.10
70807;DHT22;58882;52.170;5.386;2022-07-11T11:50:04;24.60;49.20
70807;DHT22;58882;52.170;5.386;2022-07-11T11:52:58;24.60;49.20
70807;DHT22;58882;52.170;5.386;2022-07-11T11:55:49;24.70;49.20
70807;DHT22;58882;52.170;5.386;2022-07-11T11:58:32;24.70;49.10
70807;DHT22;58882;52.170;5.386;2022-07-11T12:01:26;24.70;49.10
70807;DHT22;58882;52.170;5.386;2022-07-11T12:04:01;24.70;49.00
70807;DHT22;58882;52.170;5.386;2022-07-11T12:06:59;24.70;49.00
70807;DHT22;58882;52.170;5.386;2022-07-11T12:09:39;24.70;48.90
70807;DHT22;58882;52.170;5.386;2022-07-11T12:12:42;24.80;48.90
70807;DHT22;58882;52.170;5.386;2022-07-11T12:15:31;24.80;48.80
70807;DHT22;58882;52.170;5.386;2022-07-11T12:18:37;24.80;48.80
70807;DHT22;58882;52.170;5.386;2022-07-11T12:21:17;24.80;48.80
70807;DHT22;58882;52.170;5.386;2022-07-11T12:24:06;24.80;48.70
70807;DHT22;58882;52.170;5.386;2022-07-11T12:26:48;24.80;48.80
70807;DHT22;58882;52.170;5.386;2022-07-11T12:29:42;24.80;48.90
70807;DHT22;58882;52.170;5.386;2022-07-11T12:32:25;24.70;49.00
70807;DHT22;58882;52.170;5.386;2022-07-11T12:35:12;24.70;49.00
70807;DHT22;58882;52.170;5.386;2022-07-11T12:37:46;24.70;52.30
70807;DHT22;58882;52.170;5.386;2022-07-11T12:41:05;24.60;54.10
70807;DHT22;58882;52.170;5.386;2022-07-11T12:43:51;24.50;56.60
70807;DHT22;58882;52.170;5.386;2022-07-11T12:47:04;24.40;56.40
70807;DHT22;58882;52.170;5.386;2022-07-11T12:49:44;24.30;57.10
70807;DHT22;58882;52.170;5.386;2022-07-11T12:52:39;24.20;57.50
70807;DHT22;58882;52.170;5.386;2022-07-11T12:55:33;24.10;58.20
70807;DHT22;58882;52.170;5.386;2022-07-11T12:58:37;24.00;58.80
70807;DHT22;58882;52.170;5.386;2022-07-11T13:01:10;24.00;59.30
70807;DHT22;58882;52.170;5.386;2022-07-11T13:04:04;23.90;59.70
70807;DHT22;58882;52.170;5.386;2022-07-11T13:06:44;23.90;60.20
70807;DHT22;58882;52.170;5.386;2022-07-11T13:09:50;23.90;60.20
70807;DHT22;58882;52.170;5.386;2022-07-11T13:12:30;23.90;61.40
70807;DHT22;58882;52.170;5.386;2022-07-11T13:15:18;23.90;60.60
70807;DHT22;58882;52.170;5.386;2022-07-11T13:17:54;23.90;60.70
70807;DHT22;58882;52.170;5.386;2022-07-11T13:20:48;23.90;60.80
70807;DHT22;58882;52.170;5.386;2022-07-11T13:23:21;23.90;60.90
70807;DHT22;58882;52.170;5.386;2022-07-11T13:26:15;23.90;61.00
70807;DHT22;58882;52.170;5.386;2022-07-11T13:28:55;23.80;61.40
70807;DHT22;58882;52.170;5.386;2022-07-11T13:31:42;23.80;61.60
70807;DHT22;58882;52.170;5.386;2022-07-11T13:34:22;23.80;61.70
70807;DHT22;58882;52.170;5.386;2022-07-11T13:37:09;23.80;61.80
70807;DHT22;58882;52.170;5.386;2022-07-11T13:39:42;23.80;62.10
70807;DHT22;58882;52.170;5.386;2022-07-11T13:42:38;23.80;62.20
70807;DHT22;58882;52.170;5.386;2022-07-11T13:45:33;23.80;62.40
70807;DHT22;58882;52.170;5.386;2022-07-11T13:48:27;23.70;62.40
70807;DHT22;58882;52.170;5.386;2022-07-11T13:51:08;23.70;62.50
70807;DHT22;58882;52.170;5.386;2022-07-11T13:53:56;23.70;62.60
70807;DHT22;58882;52.170;5.386;2022-07-11T13:56:44;23.70;62.70
70807;DHT22;58882;52.170;5.386;2022-07-11T13:59:24;23.70;62.80
70807;DHT22;58882;52.170;5.386;2022-07-11T14:02:11;23.70;62.80
70807;DHT22;58882;52.170;5.386;2022-07-11T14:04:51;23.70;62.90
70807;DHT22;58882;52.170;5.386;2022-07-11T14:07:38;23.70;62.90
70807;DHT22;58882;52.170;5.386;2022-07-11T14:10:18;23.70;63.10
70807;DHT22;58882;52.170;5.386;2022-07-11T14:13:08;23.70;63.20
70807;DHT22;58882;52.170;5.386;2022-07-11T14:15:48;23.60;63.20
70807;DHT22;58882;52.170;5.386;2022-07-11T14:18:51;23.70;63.30
70807;DHT22;58882;52.170;5.386;2022-07-11T14:21:26;23.60;63.30
70807;DHT22;58882;52.170;5.386;2022-07-11T14:24:20;23.60;63.40
70807;DHT22;58882;52.170;5.386;2022-07-11T14:26:54;23.60;63.60
70807;DHT22;58882;52.170;5.386;2022-07-11T14:29:47;23.60;63.50
70807;DHT22;58882;52.170;5.386;2022-07-11T14:32:27;23.60;63.70
70807;DHT22;58882;52.170;5.386;2022-07-11T14:35:14;23.60;63.70
70807;DHT22;58882;52.170;5.386;2022-07-11T14:37:54;23.50;63.80
70807;DHT22;58882;52.170;5.386;2022-07-11T14:40:41;23.50;63.80
70807;DHT22;58882;52.170;5.386;2022-07-11T14:43:21;23.50;64.80
70807;DHT22;58882;52.170;5.386;2022-07-11T14:46:08;23.50;64.00
70807;DHT22;58882;52.170;5.386;2022-07-11T14:48:49;23.50;64.00
70807;DHT22;58882;52.170;5.386;2022-07-11T14:51:36;23.40;64.00
70807;DHT22;58882;52.170;5.386;2022-07-11T14:54:28;23.40;64.10
70807;DHT22;58882;52.170;5.386;2022-07-11T14:57:15;23.40;64.00
70807;DHT22;58882;52.170;5.386;2022-07-11T14:59:55;23.40;64.20
70807;DHT22;58882;52.170;5.386;2022-07-11T15:02:49;23.40;64.30
70807;DHT22;58882;52.170;5.386;2022-07-11T15:05:47;23.30;64.40
70807;DHT22;58882;52.170;5.386;2022-07-11T15:08:35;23.30;64.00
70807;DHT22;58882;52.170;5.386;2022-07-11T15:11:34;23.20;65.20
70807;DHT22;58882;52.170;5.386;2022-07-11T15:14:48;23.20;64.60
70807;DHT22;58882;52.170;5.386;2022-07-11T15:17:21;23.10;64.80
70807;DHT22;58882;52.170;5.386;2022-07-11T15:20:15;23.00;64.80
70807;DHT22;58882;52.170;5.386;2022-07-11T15:22:55;23.00;65.20
70807;DHT22;58882;52.170;5.386;2022-07-11T15:25:42;23.00;65.20
70807;DHT22;58882;52.170;5.386;2022-07-11T15:28:22;23.00;65.40
70807;DHT22;58882;52.170;5.386;2022-07-11T15:31:14;23.00;65.40
70807;DHT22;58882;52.170;5.386;2022-07-11T15:33:54;23.00;65.70
70807;DHT22;58882;52.170;5.386;2022-07-11T15:36:41;22.90;65.70
70807;DHT22;58882;52.170;5.386;2022-07-11T15:39:21;22.90;65.70
70807;DHT22;58882;52.170;5.386;2022-07-11T15:42:08;22.90;65.70
70807;DHT22;58882;52.170;5.386;2022-07-11T15:44:48;22.90;65.70
70807;DHT22;58882;52.170;5.386;2022-07-11T15:47:35;23.00;65.80
70807;DHT22;58882;52.170;5.386;2022-07-11T15:50:15;22.90;65.70
70807;DHT22;58882;52.170;5.386;2022-07-11T15:53:02;22.90;65.70
70807;DHT22;58882;52.170;5.386;2022-07-11T15:55:50;22.90;65.70
70807;DHT22;58882;52.170;5.386;2022-07-11T15:58:43;22.90;65.70
70807;DHT22;58882;52.170;5.386;2022-07-11T16:01:24;22.90;66.00
70807;DHT22;58882;52.170;5.386;2022-07-11T16:04:14;22.90;66.00
70807;DHT22;58882;52.170;5.386;2022-07-11T16:06:54;22.90;66.10
70807;DHT22;58882;52.170;5.386;2022-07-11T16:09:41;22.90;66.20
70807;DHT22;58882;52.170;5.386;2022-07-11T16:12:21;22.80;66.20
70807;DHT22;58882;52.170;5.386;2022-07-11T16:15:08;22.80;66.20
70807;DHT22;58882;52.170;5.386;2022-07-11T16:17:48;22.80;66.30
70807;DHT22;58882;52.170;5.386;2022-07-11T16:20:42;22.80;66.40
70807;DHT22;58882;52.170;5.386;2022-07-11T16:23:22;22.80;66.50
70807;DHT22;58882;52.170;5.386;2022-07-11T16:26:11;22.70;66.40
70807;DHT22;58882;52.170;5.386;2022-07-11T16:28:51;22.70;67.30
70807;DHT22;58882;52.170;5.386;2022-07-11T16:31:41;22.70;66.40
70807;DHT22;58882;52.170;5.386;2022-07-11T16:34:21;22.70;66.60
70807;DHT22;58882;52.170;5.386;2022-07-11T16:37:09;22.70;66.70
70807;DHT22;58882;52.170;5.386;2022-07-11T16:39:49;22.70;66.80
70807;DHT22;58882;52.170;5.386;2022-07-11T16:42:54;22.60;66.80
70807;DHT22;58882;52.170;5.386;2022-07-11T16:45:53;22.60;66.80
70807;DHT22;58882;52.170;5.386;2022-07-11T16:48:40;22.60;66.50
70807;DHT22;58882;52.170;5.386;2022-07-11T16:51:23;22.60;66.70
70807;DHT22;58882;52.170;5.386;2022-07-11T16:54:10;22.60;66.80
70807;DHT22;58882;52.170;5.386;2022-07-11T16:56:57;22.50;66.90
70807;DHT22;58882;52.170;5.386;2022-07-11T16:59:38;22.50;67.00
70807;DHT22;58882;52.170;5.386;2022-07-11T17:02:24;22.50;67.00
70807;DHT22;58882;52.170;5.386;2022-07-11T17:05:04;22.50;67.00
70807;DHT22;58882;52.170;5.386;2022-07-11T17:07:51;22.50;67.00
70807;DHT22;58882;52.170;5.386;2022-07-11T17:10:43;22.40;67.00
70807;DHT22;58882;52.170;5.386;2022-07-11T17:13:38;22.40;67.00
70807;DHT22;58882;52.170;5.386;2022-07-11T17:16:18;22.40;67.20
70807;DHT22;58882;52.170;5.386;2022-07-11T17:19:12;22.40;67.10
70807;DHT22;58882;52.170;5.386;2022-07-11T17:21:45;22.40;67.20
70807;DHT22;58882;52.170;5.386;2022-07-11T17:24:39;22.40;67.10
70807;DHT22;58882;52.170;5.386;2022-07-11T17:27:19;22.40;67.30
70807;DHT22;58882;52.170;5.386;2022-07-11T17:30:06;22.40;67.40
70807;DHT22;58882;52.170;5.386;2022-07-11T17:32:40;22.40;67.40
70807;DHT22;58882;52.170;5.386;2022-07-11T17:35:34;22.40;67.40
70807;DHT22;58882;52.170;5.386;2022-07-11T17:38:15;22.30;67.40